EST,Max TemperatureF,Mean TemperatureF,Min TemperatureF,Max Dew PointF,MeanDew PointF,Min DewpointF,Max Humidity, Mean Humidity, Min Humidity, Max Sea Level PressureIn, Mean Sea Level PressureIn, Min Sea Level PressureIn, Max VisibilityMiles, Mean VisibilityMiles, Min VisibilityMiles, Max Wind SpeedMPH, Mean Wind SpeedMPH, Max Gust SpeedMPH,PrecipitationIn, CloudCover, Events, WindDirDegrees
2013-1-1,23,17,11,14,11,8,92,75,57,30.14,30.06,29.97,9,8,2,14,7,20,T,7,Snow,273
2013-1-2,27,20,13,18,14,10,81,72,63,30.15,30.07,29.95,10,10,9,12,5,15,T,7,Snow,243
2013-1-3,29,26,22,22,19,15,84,76,68,30.09,29.99,29.94,10,8,2,20,8,24,0.01,8,Snow,241
2013-1-4,28,26,23,22,19,16,81,71,54,30.09,29.89,29.80,10,10,9,18,13,32,0.00,5,,249
2013-1-5,35,23,11,26,21,12,96,79,61,30.23,30.07,29.87,10,9,7,17,6,20,0.00,5,,191
2013-1-6,33,30,27,31,27,20,92,84,75,30.25,29.92,29.79,10,6,1,16,5,18,0.02,8,Snow,310
2013-1-7,39,30,21,25,21,18,84,69,54,30.28,30.12,29.92,10,10,10,22,10,32,0.00,4,,200
2013-1-8,43,37,30,30,27,25,85,75,64,30.17,30.10,29.98,10,8,6,16,7,21,0.00,3,,195
2013-1-9,41,33,25,30,25,21,82,65,41,30.41,30.01,29.82,10,8,6,20,11,34,0.00,6,,238
2013-1-10,41,32,22,31,25,18,85,70,55,30.58,30.45,30.22,10,10,10,16,6,22,0.00,2,,174
2013-1-11,45,40,35,43,38,30,100,91,82,30.17,29.81,29.68,10,6,0,20,10,28,0.54,8,Fog-Rain,177
2013-1-12,57,47,37,44,38,23,96,66,35,29.95,29.76,29.69,10,9,7,24,8,33,T,3,Rain,203
2013-1-13,38,35,32,34,30,25,100,95,89,29.94,29.88,29.82,10,8,2,13,3,14,0.29,8,Rain-Snow,286
2013-1-14,29,24,18,25,15,11,85,70,55,30.39,30.22,29.92,10,9,1,18,9,28,0.01,7,Snow,262
2013-1-15,29,22,15,13,10,6,80,60,39,30.40,30.31,30.13,10,10,10,14,6,21,T,1,,225
2013-1-16,32,23,13,25,18,11,88,71,53,30.09,29.82,29.61,10,9,2,21,10,32,T,6,Snow,236
2013-1-17,23,15,7,10,6,0,80,66,51,30.31,30.19,30.00,10,6,1,24,8,29,0.01,7,Snow,307
2013-1-18,33,20,6,25,10,1,91,75,59,30.38,30.14,29.75,10,7,0,17,8,22,0.08,6,Snow,184
2013-1-19,37,34,31,34,29,25,96,84,72,29.84,29.64,29.39,10,6,0,28,7,39,0.17,8,Fog-Rain-Snow,211
2013-1-20,33,21,8,28,12,0,85,70,54,30.14,29.74,29.36,10,5,0,28,12,43,0.05,7,Fog-Snow,288
2013-1-21,14,6,-2,5,0,-6,95,75,55,30.10,29.95,29.85,10,6,0,16,7,25,0.02,7,Snow,272
2013-1-22,6,2,-3,-2,-6,-10,83,66,49,30.25,30.17,30.03,10,9,2,15,6,21,0.01,6,Snow,264
2013-1-23,13,5,-3,7,0,-8,83,71,58,30.24,30.15,30.07,10,9,1,14,6,18,0.02,6,Snow,247
2013-1-24,11,2,-7,7,-1,-9,91,74,57,30.63,30.44,30.18,10,6,1,20,6,24,T,5,Snow,347
2013-1-25,18,10,1,13,8,-2,88,79,69,30.50,30.14,29.98,10,5,0,14,4,17,T,8,Fog-Snow,173
2013-1-26,24,12,0,18,9,-4,92,80,68,30.46,30.24,30.02,10,6,1,13,3,14,0.01,6,Snow,337
2013-1-27,27,14,0,23,15,-2,88,78,68,30.46,30.33,30.16,10,7,1,14,7,17,0.05,8,Snow,170
2013-1-28,34,30,25,31,28,23,100,92,84,30.12,29.93,29.80,10,4,0,10,4,14,0.34,8,Fog-Rain-Snow,152
2013-1-29,46,39,31,45,36,29,100,93,85,30.01,29.68,29.42,10,4,0,15,7,18,0.70,8,Fog-Rain,163
2013-1-30,42,33,23,41,33,20,100,94,88,29.42,29.22,28.99,10,4,1,23,8,30,0.44,8,Rain-Snow,348
2013-1-31,23,17,11,19,8,3,92,77,61,29.82,29.45,29.12,10,8,2,22,11,38,T,8,Snow,300